createdAt,value
2017-11-07T00:01:15.671Z,20.38
2017-11-07T00:04:03.840Z,20.38
2017-11-07T00:06:31.030Z,20.37
2017-11-07T00:08:58.268Z,20.36
2017-11-07T00:11:25.439Z,20.35
2017-11-07T00:13:52.648Z,20.35
2017-11-07T00:16:30.079Z,20.34
2017-11-07T00:21:43.073Z,20.32
2017-11-07T00:24:10.368Z,20.32
2017-11-07T00:26:37.588Z,20.31
2017-11-07T00:29:04.898Z,20.31
2017-11-07T00:31:32.177Z,20.30
2017-11-07T00:33:59.349Z,20.30
2017-11-07T00:36:26.569Z,20.29
2017-11-07T00:38:53.829Z,20.29
2017-11-07T00:41:21.064Z,20.28
2017-11-07T00:43:48.312Z,20.28
2017-11-07T00:46:32.493Z,20.28
2017-11-07T00:49:07.480Z,20.27
2017-11-07T00:51:34.767Z,20.28
2017-11-07T00:54:01.937Z,20.26
2017-11-07T00:56:29.108Z,20.25
2017-11-07T00:58:56.372Z,20.23
2017-11-07T01:01:34.475Z,20.23
2017-11-07T01:04:01.726Z,20.23
2017-11-07T01:06:29.050Z,20.21
2017-11-07T01:08:56.252Z,20.21
2017-11-07T01:11:23.430Z,20.21
2017-11-07T01:13:50.625Z,20.19
2017-11-07T01:16:17.903Z,20.19
2017-11-07T01:18:45.090Z,20.17
2017-11-07T01:21:12.272Z,20.16
2017-11-07T01:23:52.442Z,20.16
2017-11-07T01:26:19.836Z,20.15
2017-11-07T01:28:47.130Z,20.15
2017-11-07T01:31:14.350Z,20.14
2017-11-07T01:33:41.538Z,20.14
2017-11-07T01:36:08.758Z,20.13
2017-11-07T01:38:43.397Z,20.12
2017-11-07T01:41:10.574Z,20.12
2017-11-07T01:43:37.804Z,20.11
2017-11-07T01:46:05.788Z,20.11
2017-11-07T01:48:54.655Z,20.10
2017-11-07T01:51:22.242Z,20.10
2017-11-07T01:53:49.421Z,20.09
2017-11-07T01:56:17.549Z,20.08
2017-11-07T01:58:58.002Z,20.09
2017-11-07T02:01:32.539Z,20.08
2017-11-07T02:03:59.719Z,20.11
2017-11-07T02:06:27.255Z,20.19
2017-11-07T02:08:54.639Z,20.20
2017-11-07T02:11:21.950Z,20.17
2017-11-07T02:13:49.164Z,20.10
2017-11-07T02:16:29.631Z,20.02
2017-11-07T02:18:56.799Z,20.00
2017-11-07T02:21:36.517Z,19.97
2017-11-07T02:24:03.664Z,19.95
2017-11-07T02:26:34.645Z,19.92
2017-11-07T02:29:01.852Z,19.91
2017-11-07T02:31:29.073Z,19.89
2017-11-07T02:34:08.670Z,19.85
2017-11-07T02:36:35.856Z,19.83
2017-11-07T02:39:03.026Z,19.86
2017-11-07T02:41:30.228Z,19.84
2017-11-07T02:43:57.494Z,19.82
2017-11-07T02:46:24.771Z,19.82
2017-11-07T02:48:52.155Z,19.81
2017-11-07T02:51:19.373Z,19.79
2017-11-07T02:53:46.556Z,19.80
2017-11-07T02:56:13.729Z,19.76
2017-11-07T02:58:40.961Z,19.75
2017-11-07T03:01:08.199Z,19.80
2017-11-07T03:03:35.372Z,19.79
2017-11-07T03:06:02.591Z,19.79
2017-11-07T03:08:29.820Z,19.78
2017-11-07T03:10:57.050Z,19.75
2017-11-07T03:13:24.231Z,19.78
2017-11-07T03:16:14.913Z,19.79
2017-11-07T03:18:42.212Z,19.79
2017-11-07T03:21:09.412Z,19.78
2017-11-07T03:23:36.627Z,19.80
2017-11-07T03:26:03.859Z,19.76
2017-11-07T03:28:51.764Z,19.77
2017-11-07T03:31:18.987Z,19.77
2017-11-07T03:33:46.249Z,19.79
2017-11-07T03:36:13.451Z,19.77
2017-11-07T03:39:02.390Z,19.78
2017-11-07T03:41:29.667Z,19.76
2017-11-07T03:43:56.877Z,19.75
2017-11-07T03:46:24.058Z,19.74
2017-11-07T03:48:51.343Z,19.75
2017-11-07T03:51:18.592Z,19.75
2017-11-07T03:53:45.788Z,19.76
2017-11-07T03:56:12.991Z,19.77
2017-11-07T03:58:40.228Z,19.75
2017-11-07T04:01:28.148Z,19.72
2017-11-07T04:03:55.432Z,19.72
2017-11-07T04:06:22.635Z,19.67
2017-11-07T04:08:50.044Z,19.68
2017-11-07T04:14:17.675Z,19.68
2017-11-07T04:16:44.896Z,19.68
2017-11-07T04:19:12.280Z,19.70
2017-11-07T04:21:39.538Z,19.71
2017-11-07T04:24:06.790Z,19.72
2017-11-07T04:26:34.052Z,19.73
2017-11-07T04:29:02.280Z,19.74
2017-11-07T04:31:37.067Z,19.75
2017-11-07T04:39:49.644Z,19.82
2017-11-07T04:42:16.875Z,19.89
2017-11-07T04:44:44.060Z,19.94
2017-11-07T04:47:25.689Z,19.99
2017-11-07T04:49:52.889Z,20.02
2017-11-07T04:52:20.173Z,20.08
2017-11-07T04:54:47.390Z,20.12
2017-11-07T04:57:14.600Z,20.17
2017-11-07T04:59:41.794Z,20.22
2017-11-07T05:02:08.970Z,20.27
2017-11-07T05:04:53.020Z,20.30
2017-11-07T05:07:32.936Z,20.34
2017-11-07T05:10:00.279Z,20.37
2017-11-07T05:12:27.554Z,20.39
2017-11-07T05:14:54.791Z,20.42
2017-11-07T05:17:22.088Z,20.46
2017-11-07T05:19:49.344Z,20.50
2017-11-07T05:25:02.433Z,20.55
2017-11-07T05:27:29.881Z,20.57
2017-11-07T05:29:57.360Z,20.60
2017-11-07T05:35:27.389Z,20.67
2017-11-07T05:37:54.756Z,20.72
2017-11-07T05:40:22.036Z,20.76
2017-11-07T05:42:49.271Z,20.78
2017-11-07T05:45:16.511Z,20.81
2017-11-07T05:47:46.991Z,20.84
2017-11-07T05:50:14.452Z,20.84
2017-11-07T05:55:45.969Z,20.88
2017-11-07T05:58:13.223Z,20.92
2017-11-07T06:00:40.573Z,20.94
2017-11-07T06:08:41.224Z,21.03
2017-11-07T06:11:08.508Z,21.05
2017-11-07T06:18:44.404Z,21.14
2017-11-07T06:21:11.599Z,21.17
2017-11-07T06:23:40.504Z,21.19
2017-11-07T06:26:07.802Z,21.20
2017-11-07T06:54:21.198Z,21.29
2017-11-07T06:56:48.446Z,21.31
2017-11-07T06:59:15.800Z,21.16
2017-11-07T07:02:04.191Z,21.31
2017-11-07T07:04:38.602Z,21.24
2017-11-07T07:07:05.857Z,21.27
2017-11-07T07:09:33.048Z,21.36
2017-11-07T07:12:00.411Z,21.32
2017-11-07T13:02:23.332Z,23.57
2017-11-07T13:04:51.192Z,23.66
2017-11-07T17:02:44.438Z,23.36
2017-11-07T17:05:11.731Z,23.34
2017-11-07T17:43:25.340Z,23.13
2017-11-07T17:45:52.576Z,23.11
2017-11-07T17:48:19.801Z,23.12
2017-11-07T17:53:20.787Z,23.07
2017-11-07T17:55:47.976Z,23.06
2017-11-07T17:58:15.335Z,23.06
2017-11-07T18:00:42.775Z,23.06
2017-11-07T18:03:09.967Z,23.06
2017-11-07T18:31:02.692Z,23.10
2017-11-07T20:51:42.400Z,22.15
2017-11-07T20:54:11.234Z,22.11
2017-11-07T20:56:38.431Z,22.05
2017-11-07T20:59:05.889Z,22.03
2017-11-07T21:01:33.135Z,22.00
2017-11-07T21:04:09.467Z,21.96
2017-11-07T21:06:36.981Z,21.94
2017-11-07T21:09:04.315Z,21.93
2017-11-07T21:14:02.872Z,21.87
2017-11-07T21:19:33.370Z,21.82
2017-11-07T21:22:00.580Z,21.80
2017-11-07T21:24:27.802Z,21.79
2017-11-07T21:26:58.470Z,21.75
2017-11-07T21:29:25.808Z,21.75
2017-11-07T21:31:53.184Z,21.73
2017-11-07T21:34:24.353Z,21.72
2017-11-07T21:36:52.036Z,21.69
2017-11-07T21:39:19.339Z,21.67
2017-11-07T21:41:46.687Z,21.65
2017-11-07T21:44:13.957Z,21.62
2017-11-07T21:46:41.144Z,21.62
2017-11-07T21:49:22.260Z,21.59
2017-11-07T21:51:50.262Z,21.57
2017-11-07T21:57:27.297Z,21.52
2017-11-07T22:02:58.727Z,21.49
2017-11-07T22:08:22.923Z,21.45
2017-11-07T22:16:50.223Z,21.39
2017-11-07T22:25:22.751Z,21.34
2017-11-07T22:27:50.095Z,21.34
2017-11-07T22:30:17.450Z,21.30
2017-11-07T22:35:32.625Z,21.28
2017-11-07T22:37:59.866Z,21.27
2017-11-07T22:40:27.246Z,21.26
2017-11-07T22:45:26.350Z,21.24
2017-11-07T22:47:53.652Z,21.23
2017-11-07T22:50:20.894Z,21.21
2017-11-07T23:01:20.838Z,21.19
2017-11-07T23:03:48.054Z,21.15
2017-11-07T23:06:15.240Z,21.14
2017-11-07T23:08:45.929Z,21.13
2017-11-07T23:11:13.217Z,21.12
2017-11-07T23:13:40.525Z,21.13
2017-11-07T23:16:07.746Z,21.12
2017-11-07T23:18:34.952Z,21.12
2017-11-07T23:27:23.909Z,21.08
2017-11-07T23:29:51.165Z,21.06
2017-11-07T23:32:25.448Z,21.06
2017-11-07T23:34:53.198Z,21.06
2017-11-07T23:37:20.618Z,21.04
2017-11-07T23:39:47.944Z,21.03
2017-11-07T23:42:15.205Z,21.03
2017-11-07T23:44:43.569Z,21.02
2017-11-07T23:47:24.422Z,21.00
2017-11-07T23:58:55.305Z,20.98
